Time;durP1;ratioP1;P1;durP2;ratioP2;P2;SDS_P1;SDS_P2;PMS_P1;PMS_P2;Temp;Humidity;BMP_temperature;BMP_pressure;BME280_temperature;BME280_humidity;BME280_pressure;Samples;Min_cycle;Max_cycle;Signal;HPM_P1;HPM_P2
2021/06/15 00:03:00;;;;;;;8.93;4.18;;;;;;;;;;6360140;28;20120;-71
2021/06/15 00:06:01;;;;;;;7.18;4.90;;;;;;;;;;6361055;28;20059;-71
2021/06/15 00:09:05;;;;;;;4.85;4.38;;;;;;;;;;6360961;28;20123;-71
2021/06/15 00:12:09;;;;;;;6.53;4.10;;;;;;;;;;6349830;28;20075;-71
2021/06/15 00:15:26;;;;;;;6.97;3.83;;;;;;;;;;6363185;28;20047;-71
2021/06/15 00:18:35;;;;;;;7.50;4.18;;;;;;;;;;6359349;28;20054;-70
2021/06/15 00:22:04;;;;;;;7.65;4.68;;;;;;;;;;6360211;28;20048;-70
2021/06/15 00:25:16;;;;;;;7.15;3.97;;;;;;;;;;6362561;28;20047;-72
2021/06/15 00:28:19;;;;;;;7.13;4.43;;;;;;;;;;6361197;28;20047;-72
2021/06/15 00:31:24;;;;;;;8.60;3.87;;;;;;;;;;6363242;28;20054;-72
2021/06/15 00:34:26;;;;;;;6.45;3.78;;;;;;;;;;6360809;28;20127;-72
2021/06/15 00:37:28;;;;;;;10.23;4.13;;;;;;;;;;6360942;28;20048;-71
2021/06/15 00:40:47;;;;;;;6.82;3.80;;;;;;;;;;6349260;28;20048;-71
2021/06/15 00:43:49;;;;;;;12.77;3.88;;;;;;;;;;6361033;28;20101;-70
2021/06/15 00:46:51;;;;;;;15.23;9.55;;;;;;;;;;6353890;28;20040;-69
2021/06/15 00:49:54;;;;;;;54.28;31.52;;;;;;;;;;6352544;28;20473;-71
2021/06/15 00:52:56;;;;;;;42.75;24.00;;;;;;;;;;6351853;28;20050;-69
2021/06/15 00:55:59;;;;;;;42.03;21.40;;;;;;;;;;6351259;28;20070;-70
2021/06/15 00:59:00;;;;;;;18.55;11.68;;;;;;;;;;6350672;28;20136;-67
2021/06/15 01:02:02;;;;;;;11.13;6.93;;;;;;;;;;6350810;28;20124;-71
2021/06/15 01:05:07;;;;;;;11.65;4.75;;;;;;;;;;6353590;28;20490;-74
2021/06/15 01:08:15;;;;;;;21.05;11.18;;;;;;;;;;6539290;22;20049;-78
2021/06/15 01:11:41;;;;;;;10.30;4.93;;;;;;;;;;6253080;28;20464;-72
2021/06/15 01:15:00;;;;;;;7.03;4.72;;;;;;;;;;6239410;28;20095;-72
2021/06/15 01:18:05;;;;;;;7.30;5.00;;;;;;;;;;6251785;28;20045;-71
2021/06/15 01:21:10;;;;;;;5.03;4.13;;;;;;;;;;6252131;28;20045;-71
2021/06/15 01:24:27;;;;;;;7.22;3.78;;;;;;;;;;6239509;28;20050;-71
2021/06/15 01:27:43;;;;;;;9.30;3.65;;;;;;;;;;6250171;28;20150;-72
2021/06/15 01:30:56;;;;;;;5.35;3.50;;;;;;;;;;6252114;28;20067;-73
2021/06/15 01:34:00;;;;;;;;;;;;;;;;;;6251266;28;20115;-72
2021/06/15 01:37:06;;;;;;;5.47;3.60;;;;;;;;;;6251379;28;20337;-73
2021/06/15 01:40:14;;;;;;;6.80;3.60;;;;;;;;;;6251823;28;20050;-71
2021/06/15 01:43:22;;;;;;;4.85;3.83;;;;;;;;;;6252032;28;20053;-72
2021/06/15 01:46:28;;;;;;;6.88;3.65;;;;;;;;;;6250918;28;20053;-72
2021/06/15 01:49:38;;;;;;;6.13;3.72;;;;;;;;;;6255109;28;20083;-71
2021/06/15 01:52:42;;;;;;;8.02;3.75;;;;;;;;;;6252139;28;20049;-72
2021/06/15 01:55:47;;;;;;;6.65;3.65;;;;;;;;;;6251261;28;20125;-72
2021/06/15 01:58:51;;;;;;;4.40;3.42;;;;;;;;;;6252132;28;20051;-72
2021/06/15 02:01:54;;;;;;;5.95;3.10;;;;;;;;;;6251305;28;20049;-71
2021/06/15 02:04:57;;;;;;;5.35;3.75;;;;;;;;;;6251449;28;20084;-71
2021/06/15 02:08:03;;;;;;;5.35;3.38;;;;;;;;;;6250714;28;20054;-72
2021/06/15 02:11:05;;;;;;;6.13;3.28;;;;;;;;;;6251449;28;20126;-72
2021/06/15 02:14:19;;;;;;;7.15;3.25;;;;;;;;;;6251184;28;20068;-72
2021/06/15 02:17:29;;;;;;;5.40;3.78;;;;;;;;;;6251130;28;20076;-72
2021/06/15 02:20:45;;;;;;;3.80;3.22;;;;;;;;;;6251717;28;20053;-72
2021/06/15 02:23:49;;;;;;;5.40;3.08;;;;;;;;;;6249705;28;20053;-72
2021/06/15 02:26:52;;;;;;;4.93;3.15;;;;;;;;;;6239890;28;20052;-72
2021/06/15 02:30:08;;;;;;;7.20;3.50;;;;;;;;;;6250906;28;20049;-72
2021/06/15 02:37:02;;;;;;;6.47;3.13;;;;;;;;;;6228968;28;20125;-71
2021/06/15 02:40:18;;;;;;;4.75;3.08;;;;;;;;;;6225882;28;20065;-72
2021/06/15 02:43:30;;;;;;;5.25;2.90;;;;;;;;;;6229442;28;20077;-74
2021/06/15 02:46:35;;;;;;;6.47;3.35;;;;;;;;;;6231444;28;20045;-73
2021/06/15 02:49:42;;;;;;;4.68;2.78;;;;;;;;;;6231450;28;20065;-72
2021/06/15 02:52:46;;;;;;;4.65;3.17;;;;;;;;;;6231394;28;20057;-72
2021/06/15 02:55:54;;;;;;;9.60;3.05;;;;;;;;;;6230296;28;20042;-71
2021/06/15 02:58:56;;;;;;;4.95;3.22;;;;;;;;;;6231473;28;20053;-72
2021/06/15 03:01:59;;;;;;;5.90;2.90;;;;;;;;;;6231012;28;20050;-72
2021/06/15 03:05:01;;;;;;;6.65;3.40;;;;;;;;;;6231595;28;20054;-71
2021/06/15 03:08:04;;;;;;;4.72;2.95;;;;;;;;;;6233604;28;20397;-72
2021/06/15 03:11:06;;;;;;;5.35;2.92;;;;;;;;;;6255710;28;20382;-71
2021/06/15 03:14:12;;;;;;;3.88;2.70;;;;;;;;;;6254865;28;20060;-73
2021/06/15 03:17:15;;;;;;;3.17;2.55;;;;;;;;;;6255138;28;20058;-72
2021/06/15 03:20:19;;;;;;;7.00;2.95;;;;;;;;;;6244218;28;20053;-72
2021/06/15 03:23:43;;;;;;;5.25;2.60;;;;;;;;;;6256248;28;20049;-71
2021/06/15 03:26:50;;;;;;;6.60;3.13;;;;;;;;;;6244352;28;20138;-71
2021/06/15 03:29:52;;;;;;;6.57;3.70;;;;;;;;;;6254648;28;20052;-72
2021/06/15 03:32:58;;;;;;;6.20;3.60;;;;;;;;;;6254993;28;20058;-72
2021/06/15 03:36:01;;;;;;;7.40;3.55;;;;;;;;;;6250042;28;20056;-71
2021/06/15 03:39:04;;;;;;;6.90;3.42;;;;;;;;;;6252537;28;20058;-72
2021/06/15 03:42:09;;;;;;;4.40;3.20;;;;;;;;;;6254563;28;20072;-71
2021/06/15 03:45:14;;;;;;;7.10;4.53;;;;;;;;;;6254914;28;20053;-72
2021/06/15 03:48:19;;;;;;;5.68;3.28;;;;;;;;;;6253750;28;20049;-71
2021/06/15 03:51:24;;;;;;;4.55;3.20;;;;;;;;;;6253774;28;20099;-72
2021/06/15 03:54:28;;;;;;;5.57;3.58;;;;;;;;;;6248165;28;20068;-72
2021/06/15 03:57:30;;;;;;;5.00;3.03;;;;;;;;;;6254824;28;20053;-72
2021/06/15 04:00:54;;;;;;;4.50;2.63;;;;;;;;;;6244100;28;20512;-72
2021/06/15 04:03:59;;;;;;;3.88;2.67;;;;;;;;;;6252774;28;20087;-71
2021/06/15 04:07:04;;;;;;;3.85;2.40;;;;;;;;;;6253970;28;20469;-72
2021/06/15 04:10:23;;;;;;;6.97;2.92;;;;;;;;;;6249643;28;20420;-72
2021/06/15 04:13:26;;;;;;;2.63;2.17;;;;;;;;;;6253610;28;20049;-72
2021/06/15 04:16:28;;;;;;;5.10;2.45;;;;;;;;;;6252787;28;20049;-72
2021/06/15 04:19:56;;;;;;;6.00;2.35;;;;;;;;;;6253575;28;20046;-72
2021/06/15 04:23:01;;;;;;;5.75;2.30;;;;;;;;;;6255368;28;20057;-73
2021/06/15 04:26:03;;;;;;;5.90;2.28;;;;;;;;;;6255032;28;20055;-72
2021/06/15 04:29:07;;;;;;;4.22;2.50;;;;;;;;;;6253511;28;20060;-72
2021/06/15 04:32:11;;;;;;;3.40;2.22;;;;;;;;;;6252720;28;20059;-72
2021/06/15 04:35:15;;;;;;;9.50;2.30;;;;;;;;;;6253604;28;20045;-72
2021/06/15 04:38:22;;;;;;;3.78;2.03;;;;;;;;;;6252839;28;20046;-72
2021/06/15 04:41:29;;;;;;;5.25;2.10;;;;;;;;;;6253484;28;20057;-72
2021/06/15 04:44:34;;;;;;;4.70;2.33;;;;;;;;;;6252813;28;20075;-71
2021/06/15 04:47:40;;;;;;;5.47;2.00;;;;;;;;;;6253210;28;20057;-72
2021/06/15 04:50:44;;;;;;;4.63;2.50;;;;;;;;;;6252286;28;20055;-73
2021/06/15 04:53:46;;;;;;;5.28;2.63;;;;;;;;;;6253158;28;20065;-72
2021/06/15 04:56:49;;;;;;;4.63;2.15;;;;;;;;;;6252944;28;20160;-72
2021/06/15 04:59:54;;;;;;;4.28;2.00;;;;;;;;;;6251134;28;20444;-72
2021/06/15 05:02:56;;;;;;;3.58;2.15;;;;;;;;;;6253224;28;20053;-72
2021/06/15 05:06:04;;;;;;;5.55;2.13;;;;;;;;;;6251546;28;20111;-72
2021/06/15 05:09:07;;;;;;;6.60;2.30;;;;;;;;;;6252675;28;20057;-72
2021/06/15 05:12:09;;;;;;;4.67;2.20;;;;;;;;;;6252344;28;20045;-72
2021/06/15 05:15:13;;;;;;;2.20;1.63;;;;;;;;;;6252151;28;20058;-72
2021/06/15 05:18:15;;;;;;;6.13;1.88;;;;;;;;;;6251712;28;20889;-72
2021/06/15 05:21:24;;;;;;;4.57;2.15;;;;;;;;;;6252764;28;20049;-71
2021/06/15 05:24:32;;;;;;;6.70;2.30;;;;;;;;;;6252321;28;20060;-72
2021/06/15 05:27:35;;;;;;;7.07;2.38;;;;;;;;;;6251173;28;20103;-71
2021/06/15 05:30:37;;;;;;;5.05;2.15;;;;;;;;;;6247071;28;20063;-70
2021/06/15 05:33:40;;;;;;;4.73;2.07;;;;;;;;;;6261715;28;20050;-70
2021/06/15 05:36:43;;;;;;;7.35;1.90;;;;;;;;;;6245596;28;20052;-70
2021/06/15 05:39:45;;;;;;;6.63;2.20;;;;;;;;;;6261125;28;20061;-71
2021/06/15 05:42:48;;;;;;;4.53;2.20;;;;;;;;;;6250857;28;20046;-70
2021/06/15 05:45:50;;;;;;;5.95;2.42;;;;;;;;;;6252250;28;20050;-70
2021/06/15 05:48:52;;;;;;;5.20;2.17;;;;;;;;;;6251694;28;20050;-70
2021/06/15 05:51:59;;;;;;;6.43;2.13;;;;;;;;;;6252164;28;20052;-70
2021/06/15 05:55:01;;;;;;;3.85;2.15;;;;;;;;;;6251342;28;20045;-71
2021/06/15 05:58:03;;;;;;;5.53;2.50;;;;;;;;;;6251125;28;20045;-70
2021/06/15 06:01:05;;;;;;;7.30;2.53;;;;;;;;;;6251466;28;20099;-70
2021/06/15 06:28:33;;;;;;;17.70;2.60;;;;;;;;;;6162451;28;20047;-72
2021/06/15 06:31:36;;;;;;;8.85;3.20;;;;;;;;;;6174495;28;20042;-72
2021/06/15 06:38:48;;;;;;;6.80;2.45;;;;;;;;;;6252151;28;20480;-73
2021/06/15 06:42:09;;;;;;;5.35;2.85;;;;;;;;;;6274906;28;20045;-72
2021/06/15 06:45:13;;;;;;;6.75;2.70;;;;;;;;;;6275734;28;20052;-73
2021/06/15 06:53:00;;;;;;;7.47;3.00;;;;;;;;;;6128790;29;20048;-72
2021/06/15 07:00:33;;;;;;;9.23;2.97;;;;;;;;;;6127722;29;20048;-74
2021/06/15 07:03:35;;;;;;;5.55;2.83;;;;;;;;;;6238772;28;20049;-73
2021/06/15 07:06:37;;;;;;;9.30;2.83;;;;;;;;;;6274706;28;20160;-74
2021/06/15 07:09:51;;;;;;;6.15;2.45;;;;;;;;;;6275340;28;20128;-74
2021/06/15 07:13:06;;;;;;;4.93;3.15;;;;;;;;;;6276763;28;20053;-73
2021/06/15 07:16:09;;;;;;;6.32;2.53;;;;;;;;;;6275002;28;20607;-74
2021/06/15 07:19:11;;;;;;;4.18;2.60;;;;;;;;;;6275539;28;20060;-74
2021/06/15 07:22:13;;;;;;;10.55;2.85;;;;;;;;;;6273331;28;20058;-75
2021/06/15 07:25:40;;;;;;;7.65;2.60;;;;;;;;;;6243483;28;20058;-73
2021/06/15 07:33:06;;;;;;;15.52;2.97;;;;;;;;;;6187408;28;20088;-76
2021/06/15 07:36:17;;;;;;;8.10;2.33;;;;;;;;;;6226868;28;20084;-73
2021/06/15 07:39:19;;;;;;;5.60;2.30;;;;;;;;;;6279663;28;20057;-73
2021/06/15 07:42:25;;;;;;;6.43;2.22;;;;;;;;;;6277915;28;20053;-74
2021/06/15 07:45:30;;;;;;;3.70;2.13;;;;;;;;;;6278852;28;20076;-74
2021/06/15 07:48:58;;;;;;;6.57;2.47;;;;;;;;;;6267893;28;20055;-72
2021/06/15 08:03:31;;;;;;;5.40;2.30;;;;;;;;;;6107810;29;20448;-73
2021/06/15 08:19:13;;;;;;;5.22;2.28;;;;;;;;;;6083951;29;20041;-78
2021/06/15 08:22:15;;;;;;;5.72;2.30;;;;;;;;;;6105303;29;20135;-73
2021/06/15 08:25:17;;;;;;;6.97;2.50;;;;;;;;;;6174676;28;20085;-74
2021/06/15 08:35:54;;;;;;;3.85;2.03;;;;;;;;;;6088708;29;20060;-70
2021/06/15 08:39:03;;;;;;;3.88;1.80;;;;;;;;;;6151979;29;20051;-70
2021/06/15 08:42:06;;;;;;;6.32;2.00;;;;;;;;;;6152555;28;20419;-71
2021/06/15 08:45:08;;;;;;;;;;;;;;;;;;6152296;29;20059;-71
2021/06/15 08:48:13;;;;;;;5.03;2.30;;;;;;;;;;6127416;29;19922;-71
2021/06/15 08:51:17;;;;;;;6.88;2.13;;;;;;;;;;6142508;29;20070;-70
2021/06/15 08:54:29;;;;;;;3.45;2.10;;;;;;;;;;6138310;29;20138;-71
2021/06/15 08:57:32;;;;;;;7.25;2.33;;;;;;;;;;6152692;29;20055;-70
2021/06/15 09:00:34;;;;;;;4.28;2.00;;;;;;;;;;6152323;29;20051;-70
2021/06/15 09:03:37;;;;;;;6.00;2.42;;;;;;;;;;6152378;29;20051;-71
2021/06/15 09:23:28;;;;;;;5.50;2.00;;;;;;;;;;6031698;29;20405;-71
2021/06/15 09:31:14;;;;;;;6.93;2.13;;;;;;;;;;6110671;29;20053;-71
2021/06/15 09:34:16;;;;;;;3.60;1.90;;;;;;;;;;6149916;29;20039;-71
2021/06/15 09:38:18;;;;;;;1.60;1.50;;;;;;;;;;6151916;29;20048;-70
2021/06/15 09:45:35;;;;;;;3.47;1.80;;;;;;;;;;6140740;29;20074;-71
2021/06/15 10:04:35;;;;;;;5.28;1.90;;;;;;;;;;6214404;28;20107;-71
2021/06/15 10:07:57;;;;;;;7.15;2.03;;;;;;;;;;6224296;28;20057;-71
2021/06/15 10:11:00;;;;;;;6.38;1.90;;;;;;;;;;6220847;28;20053;-72
2021/06/15 10:14:05;;;;;;;3.75;2.25;;;;;;;;;;6223455;28;20080;-70
2021/06/15 10:17:26;;;;;;;5.25;2.38;;;;;;;;;;6224135;28;20057;-68
2021/06/15 10:20:30;;;;;;;3.38;2.20;;;;;;;;;;6224146;28;20077;-68
2021/06/15 10:23:32;;;;;;;4.03;2.22;;;;;;;;;;6223564;28;20049;-69
2021/06/15 10:26:35;;;;;;;4.57;2.30;;;;;;;;;;6213426;28;20049;-70
2021/06/15 10:29:39;;;;;;;4.47;2.42;;;;;;;;;;6223549;28;20061;-68
2021/06/15 10:32:57;;;;;;;6.78;2.60;;;;;;;;;;6222635;28;20038;-68
2021/06/15 10:36:07;;;;;;;5.85;2.47;;;;;;;;;;6223367;28;20042;-70
2021/06/15 11:00:25;;;;;;;5.97;2.95;;;;;;;;;;6102305;29;20123;-75
2021/06/15 11:15:48;;;;;;;7.35;2.50;;;;;;;;;;5967389;29;20050;-71
2021/06/15 11:19:23;;;;;;;6.43;2.97;;;;;;;;;;5980905;29;20136;-70
2021/06/15 11:22:28;;;;;;;7.07;3.22;;;;;;;;;;6098417;29;20056;-70
2021/06/15 11:25:45;;;;;;;4.43;2.47;;;;;;;;;;6095329;29;20420;-70
2021/06/15 11:28:58;;;;;;;3.97;2.58;;;;;;;;;;6103935;29;20044;-69
2021/06/15 11:32:21;;;;;;;4.85;2.83;;;;;;;;;;6105110;29;20099;-71
2021/06/15 11:35:27;;;;;;;7.32;4.38;;;;;;;;;;6104146;29;20049;-69
2021/06/15 11:38:31;;;;;;;3.47;3.10;;;;;;;;;;6094912;29;20436;-69
2021/06/15 11:42:06;;;;;;;5.80;2.50;;;;;;;;;;6104861;29;20063;-69
2021/06/15 11:45:10;;;;;;;5.72;2.70;;;;;;;;;;6103947;29;20227;-68
2021/06/15 11:48:19;;;;;;;5.05;2.55;;;;;;;;;;6104193;29;20059;-67
2021/06/15 11:51:30;;;;;;;6.53;2.50;;;;;;;;;;6103876;29;20525;-68
2021/06/15 11:59:11;;;;;;;5.13;3.13;;;;;;;;;;6035965;29;20523;-66
2021/06/15 12:02:25;;;;;;;5.28;2.80;;;;;;;;;;6060444;29;20077;-67
2021/06/15 12:05:29;;;;;;;5.35;3.10;;;;;;;;;;6108805;29;20122;-66
2021/06/15 12:08:51;;;;;;;7.53;3.05;;;;;;;;;;6149972;29;20059;-66
2021/06/15 12:12:02;;;;;;;7.93;3.17;;;;;;;;;;6152009;29;20118;-66
2021/06/15 12:15:05;;;;;;;4.47;3.30;;;;;;;;;;6149938;28;20066;-66
2021/06/15 12:18:09;;;;;;;3.83;3.10;;;;;;;;;;6151130;29;20059;-67
2021/06/15 12:21:17;;;;;;;4.35;2.70;;;;;;;;;;6150666;29;20047;-67
2021/06/15 12:25:06;;;;;;;5.03;4.15;;;;;;;;;;6150301;29;20095;-67
2021/06/15 12:28:11;;;;;;;6.97;3.08;;;;;;;;;;6141096;29;20086;-69
2021/06/15 12:31:28;;;;;;;7.70;4.07;;;;;;;;;;6150363;29;20051;-69
2021/06/15 12:34:30;;;;;;;6.10;2.72;;;;;;;;;;6146399;29;20055;-71
2021/06/15 12:50:19;;;;;;;7.55;3.30;;;;;;;;;;5980272;29;20058;-70
2021/06/15 12:53:30;;;;;;;7.68;3.65;;;;;;;;;;6126531;29;20138;-70
2021/06/15 12:56:33;;;;;;;6.35;3.30;;;;;;;;;;6138200;29;20055;-71
2021/06/15 12:59:38;;;;;;;11.43;4.25;;;;;;;;;;6150610;29;20055;-72
2021/06/15 13:02:50;;;;;;;8.27;3.53;;;;;;;;;;6140261;29;20062;-75
2021/06/15 13:05:53;;;;;;;6.97;3.40;;;;;;;;;;6150044;29;20485;-71
2021/06/15 13:08:56;;;;;;;4.45;3.33;;;;;;;;;;6148491;29;20067;-73
2021/06/15 13:12:01;;;;;;;7.68;3.50;;;;;;;;;;6138734;29;20130;-74
2021/06/15 13:15:06;;;;;;;5.50;3.40;;;;;;;;;;6130549;29;20484;-73
2021/06/15 13:18:09;;;;;;;8.75;3.50;;;;;;;;;;6149805;29;20551;-72
2021/06/15 13:21:15;;;;;;;6.18;3.33;;;;;;;;;;6135995;29;20074;-72
2021/06/15 13:24:40;;;;;;;4.80;3.28;;;;;;;;;;6098872;29;20088;-68
2021/06/15 13:39:42;;;;;;;5.68;3.20;;;;;;;;;;6672651;23;20269;-74
2021/06/15 13:42:45;;;;;;;6.25;3.20;;;;;;;;;;6192660;28;20479;-73
2021/06/15 13:45:51;;;;;;;9.02;3.78;;;;;;;;;;6178809;28;20057;-74
2021/06/15 13:48:57;;;;;;;6.32;3.80;;;;;;;;;;6171593;28;20046;-74
2021/06/15 13:51:59;;;;;;;9.80;4.18;;;;;;;;;;6189956;28;20364;-74
2021/06/15 13:55:03;;;;;;;4.72;3.33;;;;;;;;;;6178333;28;20046;-74
2021/06/15 13:58:09;;;;;;;7.10;3.80;;;;;;;;;;6178452;28;20058;-74
2021/06/15 14:01:17;;;;;;;3.90;3.47;;;;;;;;;;6176005;28;20093;-74
2021/06/15 14:04:19;;;;;;;8.65;3.42;;;;;;;;;;6176573;28;20053;-76
2021/06/15 14:07:21;;;;;;;4.70;3.55;;;;;;;;;;6176897;28;20050;-73
2021/06/15 14:10:23;;;;;;;;;;;;;;;;;;6178821;28;20431;-73
2021/06/15 14:13:27;;;;;;;5.95;4.40;;;;;;;;;;6178720;28;20370;-74
2021/06/15 14:16:29;;;;;;;8.88;3.90;;;;;;;;;;6178019;28;20181;-73
2021/06/15 14:19:30;;;;;;;;;;;;;;;;;;6178205;28;20051;-74
2021/06/15 14:22:32;;;;;;;6.13;4.22;;;;;;;;;;6179071;28;19922;-73
2021/06/15 14:25:35;;;;;;;;;;;;;;;;;;6178737;28;20069;-74
2021/06/15 14:28:38;;;;;;;5.65;3.58;;;;;;;;;;6177399;28;20414;-75
2021/06/15 14:31:40;;;;;;;7.53;3.92;;;;;;;;;;6177909;28;20529;-74
2021/06/15 14:34:42;;;;;;;5.55;3.72;;;;;;;;;;6177357;28;20055;-74
2021/06/15 14:41:05;;;;;;;7.20;4.07;;;;;;;;;;6189088;23;20115;-74
2021/06/15 14:44:09;;;;;;;10.45;4.60;;;;;;;;;;6194563;28;20073;-74
2021/06/15 14:47:12;;;;;;;5.00;3.53;;;;;;;;;;6178109;28;20065;-74
2021/06/15 14:50:15;;;;;;;7.30;3.85;;;;;;;;;;6192030;28;20058;-73
2021/06/15 14:53:17;;;;;;;7.25;4.13;;;;;;;;;;6188796;28;20050;-73
2021/06/15 14:56:21;;;;;;;5.63;3.50;;;;;;;;;;6185672;28;20397;-75
2021/06/15 14:59:26;;;;;;;6.75;3.60;;;;;;;;;;6188918;28;20112;-73
2021/06/15 15:02:27;;;;;;;9.05;3.70;;;;;;;;;;6193387;28;20064;-74
2021/06/15 15:05:30;;;;;;;5.65;4.15;;;;;;;;;;6186088;28;20050;-77
2021/06/15 15:08:32;;;;;;;7.97;4.20;;;;;;;;;;6181241;28;20069;-72
2021/06/15 15:11:59;;;;;;;5.03;3.70;;;;;;;;;;6180260;28;20049;-74
2021/06/15 15:15:36;;;;;;;7.20;4.38;;;;;;;;;;6184678;28;20058;-73
2021/06/15 15:18:38;;;;;;;5.97;4.13;;;;;;;;;;6184317;28;20061;-72
2021/06/15 15:21:40;;;;;;;4.25;3.85;;;;;;;;;;6186826;28;20050;-73
2021/06/15 15:24:44;;;;;;;6.22;3.60;;;;;;;;;;6189629;28;20057;-72
2021/06/15 15:28:16;;;;;;;5.93;4.38;;;;;;;;;;6194328;28;20046;-74
2021/06/15 15:31:20;;;;;;;5.95;4.13;;;;;;;;;;6189859;28;20050;-73
2021/06/15 15:34:22;;;;;;;5.78;4.35;;;;;;;;;;6189129;28;20217;-73
2021/06/15 15:41:27;;;;;;;7.25;4.13;;;;;;;;;;6147825;28;20524;-73
2021/06/15 15:44:43;;;;;;;10.90;4.40;;;;;;;;;;6150030;28;20055;-74
2021/06/15 15:47:49;;;;;;;6.75;4.28;;;;;;;;;;6136570;28;20546;-73
2021/06/15 15:50:53;;;;;;;9.30;4.85;;;;;;;;;;6154779;28;20504;-73
2021/06/15 15:53:56;;;;;;;6.88;4.40;;;;;;;;;;6153514;28;20055;-75
2021/06/15 15:57:16;;;;;;;;;;;;;;;;;;6159360;28;20043;-75
2021/06/15 16:04:26;;;;;;;11.40;4.00;;;;;;;;;;6151276;28;20634;-75
2021/06/15 16:07:27;;;;;;;7.72;3.80;;;;;;;;;;6151465;28;20055;-76
2021/06/15 16:10:30;;;;;;;5.77;4.10;;;;;;;;;;6158669;28;20426;-73
2021/06/15 16:13:32;;;;;;;7.60;4.50;;;;;;;;;;6141728;28;20051;-74
2021/06/15 16:16:39;;;;;;;8.15;4.50;;;;;;;;;;6155939;28;20055;-73
2021/06/15 16:23:16;;;;;;;6.85;4.03;;;;;;;;;;6146988;28;20047;-73
2021/06/15 16:26:24;;;;;;;4.90;4.35;;;;;;;;;;6156491;28;20377;-73
2021/06/15 16:29:26;;;;;;;7.75;4.38;;;;;;;;;;6138497;28;20368;-72
2021/06/15 16:32:29;;;;;;;4.68;4.05;;;;;;;;;;6146285;28;20069;-73
2021/06/15 16:35:33;;;;;;;7.70;4.32;;;;;;;;;;6153777;28;20043;-73
2021/06/15 16:38:35;;;;;;;5.40;4.47;;;;;;;;;;6165791;28;20082;-74
2021/06/15 16:42:14;;;;;;;6.22;4.93;;;;;;;;;;6147551;28;20067;-77
2021/06/15 16:45:17;;;;;;;5.50;4.80;;;;;;;;;;6155690;28;20059;-74
2021/06/15 16:48:20;;;;;;;7.80;5.15;;;;;;;;;;6159783;28;20133;-74
2021/06/15 16:51:23;;;;;;;6.53;4.93;;;;;;;;;;6158973;28;20509;-73
2021/06/15 16:54:25;;;;;;;7.25;5.22;;;;;;;;;;6160827;28;20054;-75
2021/06/15 16:57:27;;;;;;;6.43;4.75;;;;;;;;;;6172716;28;20047;-75
2021/06/15 17:00:29;;;;;;;7.30;4.93;;;;;;;;;;6185898;28;20132;-74
2021/06/15 17:06:48;;;;;;;6.78;4.82;;;;;;;;;;6178791;28;20050;-74
2021/06/15 17:09:50;;;;;;;8.05;4.85;;;;;;;;;;6188684;28;20133;-74
2021/06/15 17:12:53;;;;;;;11.57;5.73;;;;;;;;;;6182919;28;20058;-73
2021/06/15 17:15:55;;;;;;;10.55;4.90;;;;;;;;;;6187217;28;20137;-74
2021/06/15 17:18:57;;;;;;;6.00;5.40;;;;;;;;;;6163303;28;20050;-73
2021/06/15 17:22:01;;;;;;;9.85;5.32;;;;;;;;;;6189845;28;20508;-73
2021/06/15 17:25:04;;;;;;;8.93;4.72;;;;;;;;;;6187511;28;20055;-73
2021/06/15 17:28:06;;;;;;;7.60;5.10;;;;;;;;;;6187792;28;20055;-73
2021/06/15 17:31:08;;;;;;;10.20;5.32;;;;;;;;;;6189968;28;20073;-74
2021/06/15 17:34:09;;;;;;;11.02;5.28;;;;;;;;;;6196663;28;20046;-75
2021/06/15 17:37:13;;;;;;;8.43;5.00;;;;;;;;;;6191170;28;20056;-73
2021/06/15 17:40:22;;;;;;;8.15;5.03;;;;;;;;;;6180077;28;20074;-73
2021/06/15 17:43:24;;;;;;;6.72;4.90;;;;;;;;;;6210264;28;20046;-72
2021/06/15 17:46:26;;;;;;;8.60;5.45;;;;;;;;;;6211836;28;20050;-75
2021/06/15 17:49:28;;;;;;;8.15;4.63;;;;;;;;;;6204026;28;20045;-73
2021/06/15 17:52:31;;;;;;;9.52;4.88;;;;;;;;;;6213695;28;20077;-73
2021/06/15 17:55:33;;;;;;;5.53;4.80;;;;;;;;;;6208382;28;20126;-75
2021/06/15 17:58:37;;;;;;;7.95;5.93;;;;;;;;;;6213342;28;20054;-73
2021/06/15 18:01:39;;;;;;;10.30;5.10;;;;;;;;;;6178783;28;20049;-73
2021/06/15 18:04:45;;;;;;;6.63;5.20;;;;;;;;;;6202083;28;20526;-74
2021/06/15 18:07:52;;;;;;;11.30;5.25;;;;;;;;;;6207246;28;20038;-73
2021/06/15 18:10:56;;;;;;;11.63;5.78;;;;;;;;;;6212066;28;20057;-73
2021/06/15 18:14:08;;;;;;;13.35;5.45;;;;;;;;;;6210618;28;20402;-76
2021/06/15 18:17:12;;;;;;;11.55;5.38;;;;;;;;;;6209425;28;20451;-73
2021/06/15 18:20:18;;;;;;;8.80;5.85;;;;;;;;;;6199450;28;20047;-73
2021/06/15 18:23:21;;;;;;;5.85;4.65;;;;;;;;;;6200719;28;20077;-74
2021/06/15 18:26:43;;;;;;;8.00;5.43;;;;;;;;;;6198872;28;20076;-75
2021/06/15 18:29:45;;;;;;;8.13;4.90;;;;;;;;;;6200610;28;20046;-71
2021/06/15 18:33:06;;;;;;;6.55;5.10;;;;;;;;;;6196133;28;20049;-75
2021/06/15 18:36:18;;;;;;;12.23;5.28;;;;;;;;;;6194780;28;20079;-73
2021/06/15 18:39:30;;;;;;;8.15;5.03;;;;;;;;;;6195222;28;20056;-74
2021/06/15 18:42:38;;;;;;;9.70;4.75;;;;;;;;;;6206560;28;20958;-73
2021/06/15 18:45:40;;;;;;;8.15;5.28;;;;;;;;;;6207789;28;20054;-73
2021/06/15 18:48:41;;;;;;;12.00;5.30;;;;;;;;;;6212616;28;20493;-73
2021/06/15 18:51:43;;;;;;;6.80;5.15;;;;;;;;;;6206794;28;20058;-71
2021/06/15 18:54:49;;;;;;;5.85;5.22;;;;;;;;;;6204526;28;20065;-72
2021/06/15 18:57:58;;;;;;;10.40;5.50;;;;;;;;;;6178903;28;20053;-75
2021/06/15 19:01:13;;;;;;;10.02;5.15;;;;;;;;;;6189134;28;20049;-72
2021/06/15 19:04:15;;;;;;;10.88;5.43;;;;;;;;;;6190521;28;20050;-72
2021/06/15 19:07:17;;;;;;;7.55;4.93;;;;;;;;;;6207237;28;20137;-72
2021/06/15 19:10:24;;;;;;;8.48;4.85;;;;;;;;;;6206763;28;20050;-73
2021/06/15 19:16:53;;;;;;;9.18;5.00;;;;;;;;;;6205368;28;20033;-72
2021/06/15 19:19:57;;;;;;;7.50;4.75;;;;;;;;;;6206464;28;20054;-72
2021/06/15 19:23:00;;;;;;;9.02;4.60;;;;;;;;;;6188879;28;20054;-71
2021/06/15 19:26:42;;;;;;;8.00;5.15;;;;;;;;;;6208338;28;20038;-72
2021/06/15 19:29:45;;;;;;;7.20;5.30;;;;;;;;;;6119711;29;20079;-72
2021/06/15 19:32:47;;;;;;;;;;;;;;;;;;6115622;29;20055;-72
2021/06/15 19:35:50;;;;;;;7.63;5.40;;;;;;;;;;6203791;28;19936;-71
2021/06/15 19:38:55;;;;;;;9.98;5.30;;;;;;;;;;6203858;28;20525;-72
2021/06/15 19:41:58;;;;;;;8.40;5.35;;;;;;;;;;6204008;28;20053;-72
2021/06/15 19:45:00;;;;;;;8.25;5.07;;;;;;;;;;6204380;28;20095;-72
2021/06/15 19:48:03;;;;;;;7.38;5.40;;;;;;;;;;6211759;28;20050;-72
2021/06/15 19:51:08;;;;;;;7.40;5.20;;;;;;;;;;6209195;28;20046;-72
2021/06/15 19:54:10;;;;;;;7.38;5.15;;;;;;;;;;6213148;28;20493;-72
2021/06/15 19:57:19;;;;;;;7.13;5.68;;;;;;;;;;6213795;28;20142;-72
2021/06/15 20:00:21;;;;;;;8.98;5.60;;;;;;;;;;6208223;28;20177;-72
2021/06/15 20:03:23;;;;;;;9.27;5.60;;;;;;;;;;6203930;28;20378;-71
2021/06/15 20:06:27;;;;;;;9.57;4.68;;;;;;;;;;6213121;28;20050;-72
2021/06/15 20:09:29;;;;;;;8.75;4.95;;;;;;;;;;6207718;28;20081;-73
2021/06/15 20:12:32;;;;;;;8.85;5.53;;;;;;;;;;6208118;28;20060;-72
2021/06/15 20:15:34;;;;;;;7.53;5.78;;;;;;;;;;6215100;28;20084;-72
2021/06/15 20:18:39;;;;;;;13.38;5.82;;;;;;;;;;6210498;28;20046;-72
2021/06/15 20:22:15;;;;;;;9.57;7.38;;;;;;;;;;6209902;28;20569;-72
2021/06/15 20:25:19;;;;;;;12.45;6.32;;;;;;;;;;6207003;28;20120;-72
2021/06/15 20:28:49;;;;;;;6.43;5.22;;;;;;;;;;6217521;28;20045;-72
2021/06/15 20:31:57;;;;;;;13.90;6.53;;;;;;;;;;6188585;28;20041;-72
2021/06/15 20:34:59;;;;;;;13.18;8.07;;;;;;;;;;6208377;28;20046;-72
2021/06/15 20:38:01;;;;;;;9.23;5.90;;;;;;;;;;6215268;28;20054;-72
2021/06/15 20:41:09;;;;;;;13.65;9.95;;;;;;;;;;6212689;28;20504;-72
2021/06/15 20:44:13;;;;;;;10.00;7.28;;;;;;;;;;6212080;28;20470;-71
2021/06/15 20:47:15;;;;;;;37.45;8.70;;;;;;;;;;6203512;28;20489;-72
2021/06/15 20:51:10;;;;;;;130.02;15.68;;;;;;;;;;6210435;28;20042;-72
2021/06/15 20:54:13;;;;;;;46.30;7.70;;;;;;;;;;6135522;28;20136;-72
2021/06/15 20:57:15;;;;;;;50.35;10.35;;;;;;;;;;6218226;28;20057;-71
2021/06/15 21:04:24;;;;;;;17.00;6.00;;;;;;;;;;6157978;28;20229;-71
2021/06/15 21:07:26;;;;;;;84.40;11.70;;;;;;;;;;6206128;28;20062;-71
2021/06/15 21:10:37;;;;;;;54.30;9.18;;;;;;;;;;6197411;28;20066;-72
2021/06/15 21:24:36;;;;;;;17.38;6.28;;;;;;;;;;6160323;28;20059;-71
2021/06/15 21:27:44;;;;;;;10.70;5.38;;;;;;;;;;6190561;28;20409;-72
2021/06/15 21:30:48;;;;;;;7.20;5.15;;;;;;;;;;6196149;28;20042;-71
2021/06/15 21:33:51;;;;;;;7.38;5.13;;;;;;;;;;6204656;28;20847;-71
2021/06/15 21:37:00;;;;;;;6.70;5.50;;;;;;;;;;6211312;28;20061;-72
2021/06/15 21:40:31;;;;;;;12.32;5.93;;;;;;;;;;6188882;28;20050;-71
2021/06/15 21:43:35;;;;;;;8.32;5.57;;;;;;;;;;6165142;28;20058;-72
2021/06/15 21:46:50;;;;;;;8.63;6.15;;;;;;;;;;6190426;28;20050;-72
2021/06/15 21:50:28;;;;;;;7.78;5.78;;;;;;;;;;6202044;28;20391;-73
2021/06/15 21:53:30;;;;;;;9.80;6.00;;;;;;;;;;6203000;28;20058;-72
2021/06/15 21:56:33;;;;;;;53.47;9.57;;;;;;;;;;6208231;28;20060;-72
2021/06/15 21:59:36;;;;;;;;;;;;;;;;;;6206063;28;21099;-71
2021/06/15 22:02:38;;;;;;;14.73;8.50;;;;;;;;;;6209925;28;19921;-74
2021/06/15 22:05:40;;;;;;;12.40;7.88;;;;;;;;;;6203521;28;20682;-75
2021/06/15 22:08:43;;;;;;;14.27;6.90;;;;;;;;;;6174143;28;20053;-73
2021/06/15 22:11:44;;;;;;;20.38;8.60;;;;;;;;;;6205905;28;20066;-73
2021/06/15 22:19:01;;;;;;;49.03;14.25;;;;;;;;;;6163427;28;20465;-72
2021/06/15 22:22:09;;;;;;;84.90;18.20;;;;;;;;;;6208992;28;20587;-72
2021/06/15 22:25:19;;;;;;;57.47;17.15;;;;;;;;;;6214741;28;20057;-73